< < Back
Terminal Aerodrome Forecast


Current Version              Previous Versions:   1  2  3  4  5  6  7  8  9  

Terminal Aerodrome Forecast

206
FTUS42 KFFC 190500
TAFATL
TAF
KATL 190520Z 1906/2012 04014G24KT 6SM -RA SCT009 BKN015
      TEMPO 1908/1912 BKN009
     FM191200 04018G28KT 6SM -RA BKN015
     FM192200 05014G24KT P6SM BKN020=



Latest METAR

596
SAUS70 KWBC 191356
MTRATL
METAR KATL 191352Z 02015G21KT 2SM -RA BR BKN009 OVC014 13/12 A3008 RMK
AO2 RAE1259B33DZB07E33 SLP186 P0001 T01280117 $


USA.gov is the U.S. government's official web portal to all federal, state and local government web resources and services.